Los Olivos, California
Current Conditions -  °F | °C
As of 1:35 AM on Thursday 18 Dec 2014 (Local Time) from KIZA Reporting Station
Overcast Overcast  
Wind Chill: 41°   Ceiling: 4700
Heat Index: 45°   Visibility: 10mi
Dew Point: 43°   Wind: 6mph
Humidity: 93%   Direction: 120°ESE
Pressure: 30.13"   Gusts: NA
Location:  34.67°N, 120.12°W
Report Text: KIZA 180935Z AUTO 12005KT 10SM BKN047 OVC060 07/06 A3013 RMK AO2
Loading
Personal Weather Stations






























Interactive Weather Map New forecast layout! Learn more

10-Day Weather Forecast

Advertisements
Track Severe Weather on mobile